createdAt,value
2023-03-26T00:01:17.516Z,92.50
2023-03-26T00:03:47.092Z,92.75
2023-03-26T00:06:15.516Z,92.46
2023-03-26T00:08:44.898Z,92.48
2023-03-26T00:11:13.656Z,92.70
2023-03-26T00:13:41.423Z,92.82
2023-03-26T00:16:08.340Z,92.83
2023-03-26T00:18:35.055Z,92.67
2023-03-26T00:21:05.147Z,92.88
2023-03-26T00:23:33.856Z,92.70
2023-03-26T00:26:02.697Z,92.47
2023-03-26T00:28:29.870Z,92.58
2023-03-26T00:31:05.179Z,92.64
2023-03-26T00:33:32.500Z,92.59
2023-03-26T00:36:02.466Z,92.84
2023-03-26T00:38:30.866Z,92.46
2023-03-26T00:41:05.857Z,92.68
2023-03-26T00:43:34.934Z,92.35
2023-03-26T00:46:02.205Z,92.46
2023-03-26T00:48:44.040Z,92.89
2023-03-26T00:51:15.199Z,92.71
2023-03-26T00:53:43.002Z,92.63
2023-03-26T00:56:09.987Z,92.61
2023-03-26T00:58:37.262Z,92.84
2023-03-26T01:01:07.824Z,92.49
2023-03-26T01:03:36.682Z,92.63
2023-03-26T01:06:19.651Z,92.26
2023-03-26T01:08:52.769Z,92.57
2023-03-26T01:11:27.903Z,92.22
2023-03-26T01:13:57.737Z,92.64
2023-03-26T01:16:38.179Z,92.57
2023-03-26T01:19:16.377Z,92.16
2023-03-26T01:21:43.048Z,92.12
2023-03-26T01:24:10.236Z,91.92
2023-03-26T01:27:01.841Z,91.71
2023-03-26T01:29:37.468Z,91.57
2023-03-26T01:32:16.295Z,91.62
2023-03-26T01:34:59.011Z,91.97
2023-03-26T01:37:52.414Z,92.49
2023-03-26T01:40:25.378Z,92.42
2023-03-26T01:43:03.447Z,92.11
2023-03-26T01:45:38.103Z,92.13
2023-03-26T01:48:06.098Z,92.37
2023-03-26T01:50:33.085Z,92.58
2023-03-26T01:53:00.550Z,92.30
2023-03-26T01:55:36.889Z,92.20
2023-03-26T01:58:56.784Z,92.10
2023-03-26T02:01:32.860Z,91.87
2023-03-26T02:04:16.527Z,92.04
2023-03-26T02:06:48.308Z,91.78
2023-03-26T02:09:22.282Z,92.32
2023-03-26T02:11:50.307Z,91.95
2023-03-26T02:14:17.339Z,92.16
2023-03-26T02:16:46.703Z,91.69
2023-03-26T02:19:21.359Z,91.91
2023-03-26T02:21:51.997Z,91.46
2023-03-26T02:24:19.538Z,91.25
2023-03-26T02:31:01.764Z,91.71
2023-03-26T02:33:30.037Z,91.71
2023-03-26T02:35:59.420Z,91.51
2023-03-26T02:38:26.674Z,91.53
2023-03-26T02:40:54.631Z,91.52
2023-03-26T02:43:22.093Z,91.68
2023-03-26T02:45:49.036Z,91.75
2023-03-26T02:48:15.685Z,92.04
2023-03-26T02:50:43.492Z,91.50
2023-03-26T02:53:11.750Z,91.66
2023-03-26T02:55:38.409Z,92.07
2023-03-26T02:58:06.228Z,91.91
2023-03-26T03:00:34.339Z,91.41
2023-03-26T03:03:04.471Z,92.04
2023-03-26T03:05:33.083Z,91.65
2023-03-26T03:08:00.124Z,91.75
2023-03-26T03:10:28.026Z,91.62
2023-03-26T03:12:54.767Z,92.02
2023-03-26T03:15:21.471Z,91.87
2023-03-26T03:17:48.251Z,91.62
2023-03-26T03:20:15.511Z,91.71
2023-03-26T03:22:42.321Z,91.65
2023-03-26T03:25:14.138Z,91.70
2023-03-26T03:27:42.737Z,91.51
2023-03-26T03:30:12.198Z,92.04
2023-03-26T03:32:39.120Z,91.57
2023-03-26T03:35:06.885Z,91.25
2023-03-26T03:37:33.659Z,91.97
2023-03-26T03:40:00.349Z,91.57
2023-03-26T03:42:29.723Z,91.59
2023-03-26T03:44:56.181Z,90.73
2023-03-26T03:47:22.822Z,90.86
2023-03-26T03:49:49.995Z,90.90
2023-03-26T03:52:18.141Z,90.78
2023-03-26T03:54:44.972Z,90.32
2023-03-26T03:57:11.551Z,90.92
2023-03-26T03:59:38.030Z,90.43
2023-03-26T04:02:14.317Z,91.03
2023-03-26T04:04:40.883Z,90.73
2023-03-26T04:07:07.392Z,90.30
2023-03-26T04:09:33.858Z,90.24
2023-03-26T04:12:00.402Z,90.47
2023-03-26T04:14:26.864Z,90.70
2023-03-26T04:16:53.370Z,90.59
2023-03-26T04:19:19.955Z,90.75
2023-03-26T04:21:46.461Z,90.61
2023-03-26T04:24:13.520Z,90.09
2023-03-26T04:26:41.063Z,90.64
2023-03-26T04:29:11.899Z,90.20
2023-03-26T04:31:38.829Z,90.38
2023-03-26T04:34:14.862Z,90.08
2023-03-26T04:36:46.235Z,90.48
2023-03-26T04:39:13.369Z,90.33
2023-03-26T04:41:39.891Z,90.15
2023-03-26T04:44:06.865Z,89.71
2023-03-26T04:46:33.742Z,89.61
2023-03-26T04:49:01.093Z,90.26
2023-03-26T04:51:35.068Z,88.88
2023-03-26T04:54:02.662Z,89.55
2023-03-26T04:56:52.653Z,89.75
2023-03-26T04:59:26.151Z,89.29
2023-03-26T05:01:53.407Z,89.07
2023-03-26T05:04:19.982Z,89.51
2023-03-26T05:06:46.804Z,89.50
2023-03-26T05:09:14.347Z,88.69
2023-03-26T05:11:41.250Z,88.73
2023-03-26T05:14:08.236Z,88.85
2023-03-26T05:16:35.838Z,89.54
2023-03-26T05:19:02.446Z,88.76
2023-03-26T05:21:29.014Z,88.79
2023-03-26T05:23:55.673Z,88.57
2023-03-26T05:26:22.186Z,88.64
2023-03-26T05:28:48.688Z,89.33
2023-03-26T05:31:18.537Z,89.57
2023-03-26T05:33:46.255Z,89.17
2023-03-26T05:36:15.208Z,88.79
2023-03-26T05:38:47.258Z,88.85
2023-03-26T05:41:16.594Z,89.28
2023-03-26T05:43:44.810Z,88.80
2023-03-26T05:46:15.565Z,88.70
2023-03-26T05:48:42.502Z,89.01
2023-03-26T05:51:09.252Z,89.11
2023-03-26T05:53:35.912Z,88.16
2023-03-26T05:56:02.943Z,88.47
2023-03-26T05:58:31.823Z,88.10
2023-03-26T06:01:08.430Z,88.76
2023-03-26T06:03:38.124Z,87.73
2023-03-26T06:06:09.246Z,88.39
2023-03-26T06:08:35.940Z,87.85
2023-03-26T06:11:07.197Z,88.24
2023-03-26T06:13:34.040Z,88.10
2023-03-26T06:16:00.786Z,88.37
2023-03-26T06:18:27.603Z,87.82
2023-03-26T06:20:54.754Z,88.00
2023-03-26T06:23:23.117Z,88.34
2023-03-26T06:25:49.947Z,88.05
2023-03-26T06:28:17.257Z,88.08
2023-03-26T06:30:45.110Z,87.40
2023-03-26T06:33:11.761Z,87.26
2023-03-26T06:35:38.567Z,87.62
2023-03-26T06:38:07.620Z,87.33
2023-03-26T06:40:34.516Z,87.33
2023-03-26T06:43:09.362Z,87.40
2023-03-26T06:45:38.026Z,87.64
2023-03-26T06:48:06.062Z,87.51
2023-03-26T06:50:32.910Z,87.75
2023-03-26T06:53:00.285Z,88.01
2023-03-26T06:55:27.479Z,87.53
2023-03-26T06:57:55.903Z,87.74
2023-03-26T07:00:22.833Z,87.64
2023-03-26T07:02:49.906Z,87.34
2023-03-26T07:05:16.841Z,87.37
2023-03-26T07:07:46.181Z,87.23
2023-03-26T07:10:13.769Z,87.20
2023-03-26T07:12:42.428Z,87.33
2023-03-26T07:15:10.173Z,87.25
2023-03-26T07:17:37.269Z,86.87
2023-03-26T07:20:06.526Z,86.80
2023-03-26T07:22:33.809Z,87.11
2023-03-26T07:25:01.118Z,87.16
2023-03-26T07:27:50.976Z,86.76
2023-03-26T07:30:35.918Z,85.03
2023-03-26T07:33:09.435Z,84.97
2023-03-26T07:35:46.735Z,85.30
2023-03-26T07:38:35.266Z,85.37
2023-03-26T07:41:30.592Z,85.53
2023-03-26T07:44:05.929Z,85.38
2023-03-26T07:46:37.084Z,86.13
2023-03-26T07:49:05.115Z,86.14
2023-03-26T07:51:32.446Z,86.23
2023-03-26T07:54:00.543Z,86.62
2023-03-26T07:56:37.604Z,86.41
2023-03-26T07:59:26.317Z,85.69
2023-03-26T08:02:01.386Z,85.90
2023-03-26T08:05:04.699Z,85.50
2023-03-26T08:07:52.687Z,84.57
2023-03-26T08:10:23.719Z,84.40
2023-03-26T08:13:25.391Z,83.39
2023-03-26T08:16:06.152Z,81.46
2023-03-26T08:19:11.018Z,81.51
2023-03-26T08:21:47.955Z,81.57
2023-03-26T08:24:17.747Z,81.24
2023-03-26T08:26:53.048Z,81.83
2023-03-26T08:29:29.705Z,82.21
2023-03-26T08:31:57.421Z,81.99
2023-03-26T08:34:24.186Z,81.60
2023-03-26T08:36:51.002Z,81.90
2023-03-26T08:39:18.172Z,80.06
2023-03-26T08:42:06.763Z,78.41
2023-03-26T08:44:51.453Z,80.24
2023-03-26T08:47:39.841Z,77.78
2023-03-26T08:50:21.888Z,79.10
2023-03-26T08:53:21.395Z,77.85
2023-03-26T08:56:01.588Z,78.63
2023-03-26T08:58:46.908Z,78.39
2023-03-26T09:01:45.810Z,78.98
2023-03-26T09:04:41.238Z,78.13
2023-03-26T09:07:42.573Z,77.94
2023-03-26T09:10:33.738Z,77.73
2023-03-26T09:13:47.707Z,75.96
2023-03-26T09:16:32.994Z,75.06
2023-03-26T09:19:17.951Z,75.34
2023-03-26T09:21:53.606Z,76.00
2023-03-26T09:24:58.997Z,72.76
2023-03-26T09:27:56.227Z,71.25
2023-03-26T09:30:44.789Z,73.31
2023-03-26T09:33:28.032Z,73.32
2023-03-26T09:36:32.914Z,72.04
2023-03-26T09:39:17.380Z,70.90
2023-03-26T09:42:03.955Z,71.07
2023-03-26T09:44:59.488Z,71.56
2023-03-26T09:47:44.175Z,70.78
2023-03-26T09:50:29.746Z,71.42
2023-03-26T09:53:14.585Z,71.27
2023-03-26T09:56:00.226Z,70.99
2023-03-26T09:58:50.276Z,71.11
2023-03-26T10:01:32.033Z,69.84
2023-03-26T10:04:38.526Z,70.77
2023-03-26T10:07:45.040Z,68.56
2023-03-26T10:10:25.691Z,68.95
2023-03-26T10:13:14.607Z,67.55
2023-03-26T10:15:44.768Z,69.30
2023-03-26T10:18:33.880Z,69.34
2023-03-26T10:21:17.388Z,69.40
2023-03-26T10:24:01.612Z,68.26
2023-03-26T10:27:08.503Z,69.00
2023-03-26T10:29:55.726Z,66.07
2023-03-26T10:32:30.832Z,66.03
2023-03-26T10:35:37.068Z,65.75
2023-03-26T10:38:42.067Z,64.56
2023-03-26T10:41:35.961Z,63.29
2023-03-26T10:44:44.408Z,62.01
2023-03-26T10:47:40.734Z,61.75
2023-03-26T10:50:17.235Z,61.39
2023-03-26T10:52:56.234Z,63.11
2023-03-26T10:55:33.886Z,60.95
2023-03-26T10:58:25.174Z,61.43
2023-03-26T11:01:00.111Z,64.04
2023-03-26T11:03:54.830Z,63.37
2023-03-26T11:07:06.856Z,63.94
2023-03-26T11:09:54.252Z,62.52
2023-03-26T11:12:44.833Z,60.75
2023-03-26T11:15:24.665Z,61.66
2023-03-26T11:18:09.874Z,59.00
2023-03-26T11:20:45.596Z,61.91
2023-03-26T11:23:22.371Z,57.33
2023-03-26T11:26:06.804Z,58.72
2023-03-26T11:29:03.119Z,60.64
2023-03-26T11:32:01.673Z,60.20
2023-03-26T11:34:37.093Z,59.09
2023-03-26T11:37:08.504Z,59.83
2023-03-26T11:39:57.908Z,58.32
2023-03-26T11:42:25.614Z,59.68
2023-03-26T11:45:12.915Z,60.92
2023-03-26T11:47:43.401Z,60.99
2023-03-26T11:50:18.112Z,57.94
2023-03-26T11:52:46.556Z,60.32
2023-03-26T11:55:13.993Z,58.81
2023-03-26T11:57:49.006Z,60.92
2023-03-26T12:00:21.058Z,62.12
2023-03-26T12:02:48.917Z,61.66
2023-03-26T12:05:18.464Z,60.65
2023-03-26T12:07:57.852Z,61.26
2023-03-26T12:10:29.360Z,58.96
2023-03-26T12:13:21.586Z,56.89
2023-03-26T12:15:48.537Z,60.16
2023-03-26T12:18:24.972Z,59.91
2023-03-26T12:21:04.735Z,60.27
2023-03-26T12:23:43.490Z,59.79
2023-03-26T12:26:15.136Z,59.94
2023-03-26T12:28:47.011Z,59.20
2023-03-26T12:31:19.006Z,57.17
2023-03-26T12:34:05.260Z,57.89
2023-03-26T12:36:35.733Z,58.44
2023-03-26T12:40:10.740Z,59.78
2023-03-26T12:44:47.105Z,58.58
2023-03-26T12:45:14.465Z,59.94
2023-03-26T12:47:55.465Z,59.68
2023-03-26T12:50:44.250Z,56.58
2023-03-26T12:53:39.530Z,59.23
2023-03-26T12:56:47.730Z,54.81
2023-03-26T12:59:30.798Z,57.76
2023-03-26T13:02:22.587Z,58.97
2023-03-26T13:05:17.678Z,55.82
2023-03-26T13:08:05.583Z,58.03
2023-03-26T13:11:14.159Z,58.42
2023-03-26T13:14:00.617Z,58.71
2023-03-26T13:16:48.138Z,59.48
2023-03-26T13:19:41.939Z,59.55
2023-03-26T13:22:25.579Z,58.90
2023-03-26T13:25:04.613Z,59.59
2023-03-26T13:27:49.577Z,59.25
2023-03-26T13:30:28.912Z,57.65
2023-03-26T13:33:20.943Z,59.19
2023-03-26T13:36:14.444Z,57.13
2023-03-26T13:39:04.435Z,58.11
2023-03-26T13:41:53.467Z,57.38
2023-03-26T13:44:46.175Z,57.51
2023-03-26T13:47:18.487Z,59.04
2023-03-26T13:49:51.858Z,57.96
2023-03-26T13:52:41.968Z,59.44
2023-03-26T13:55:20.570Z,59.66
2023-03-26T13:58:03.060Z,58.16
2023-03-26T14:00:54.193Z,58.66
2023-03-26T14:03:33.415Z,58.22
2023-03-26T14:06:08.364Z,58.24
2023-03-26T14:08:49.390Z,58.98
2023-03-26T14:11:27.785Z,59.15
2023-03-26T14:14:04.256Z,58.42
2023-03-26T14:16:41.737Z,58.62
2023-03-26T14:19:27.836Z,57.17
2023-03-26T14:22:33.620Z,56.39
2023-03-26T14:25:30.168Z,56.37
2023-03-26T14:28:02.621Z,55.76
2023-03-26T14:30:59.975Z,55.53
2023-03-26T14:33:48.287Z,57.02
2023-03-26T14:36:49.052Z,56.11
2023-03-26T14:39:29.089Z,56.70
2023-03-26T14:42:06.534Z,56.65
2023-03-26T14:44:56.291Z,57.17
2023-03-26T14:47:26.756Z,57.22
2023-03-26T14:50:36.298Z,57.05
2023-03-26T14:53:29.761Z,57.46
2023-03-26T14:56:15.719Z,58.76
2023-03-26T14:59:07.169Z,58.60
2023-03-26T15:02:17.448Z,58.57
2023-03-26T15:05:08.465Z,57.24
2023-03-26T15:07:57.956Z,59.01
2023-03-26T15:10:42.775Z,58.22
2023-03-26T15:13:40.686Z,57.94
2023-03-26T15:16:27.962Z,58.64
2023-03-26T15:19:33.364Z,58.91
2023-03-26T15:22:21.552Z,58.30
2023-03-26T15:25:18.446Z,58.41
2023-03-26T15:28:14.570Z,58.69
2023-03-26T15:31:10.201Z,58.79
2023-03-26T15:33:45.613Z,59.22
2023-03-26T15:36:33.337Z,59.33
2023-03-26T15:39:06.446Z,59.43
2023-03-26T15:41:55.667Z,59.05
2023-03-26T15:45:15.590Z,59.50
2023-03-26T15:48:04.824Z,59.64
2023-03-26T15:50:49.895Z,59.60
2023-03-26T15:53:23.419Z,58.56
2023-03-26T15:56:07.369Z,59.21
2023-03-26T15:58:49.289Z,58.50
2023-03-26T16:02:04.056Z,59.53
2023-03-26T16:04:50.394Z,59.87
2023-03-26T16:07:21.757Z,59.06
2023-03-26T16:10:13.318Z,59.93
2023-03-26T16:12:54.729Z,58.83
2023-03-26T16:15:33.201Z,58.95
2023-03-26T16:18:15.311Z,59.15
2023-03-26T16:20:46.655Z,59.74
2023-03-26T16:23:29.220Z,59.46
2023-03-26T16:26:08.066Z,60.29
2023-03-26T16:28:36.503Z,59.96
2023-03-26T16:31:37.468Z,60.16
2023-03-26T16:34:05.248Z,60.07
2023-03-26T16:36:36.248Z,60.84
2023-03-26T16:39:05.653Z,61.47
2023-03-26T16:42:06.556Z,61.70
2023-03-26T16:44:47.398Z,61.83
2023-03-26T16:47:34.776Z,62.06
2023-03-26T16:50:43.684Z,62.75
2023-03-26T16:53:41.708Z,63.59
2023-03-26T16:56:37.853Z,63.86
2023-03-26T16:59:22.051Z,64.29
2023-03-26T17:02:01.813Z,64.57
2023-03-26T17:04:32.466Z,65.14
2023-03-26T17:07:30.103Z,65.10
2023-03-26T17:10:35.004Z,64.54
2023-03-26T17:13:23.319Z,65.16
2023-03-26T17:16:12.531Z,64.83
2023-03-26T17:18:43.497Z,65.14
2023-03-26T17:21:12.929Z,63.83
2023-03-26T17:23:51.482Z,65.04
2023-03-26T17:26:50.920Z,64.88
2023-03-26T17:29:47.960Z,65.12
2023-03-26T17:32:15.126Z,65.21
2023-03-26T17:34:59.080Z,65.75
2023-03-26T17:37:32.252Z,65.80
2023-03-26T17:40:01.668Z,65.43
2023-03-26T17:42:33.117Z,65.04
2023-03-26T17:45:02.402Z,65.71
2023-03-26T17:47:38.247Z,65.22
2023-03-26T17:50:13.321Z,65.19
2023-03-26T17:52:55.626Z,65.56
2023-03-26T17:55:30.483Z,65.58
2023-03-26T17:58:01.025Z,65.45
2023-03-26T18:00:41.688Z,65.38
2023-03-26T18:03:21.225Z,65.59
2023-03-26T18:05:49.001Z,65.24
2023-03-26T18:08:39.631Z,65.72
2023-03-26T18:11:07.765Z,65.54
2023-03-26T18:14:09.283Z,65.33
2023-03-26T18:16:51.383Z,65.15
2023-03-26T18:19:19.298Z,65.30
2023-03-26T18:21:52.213Z,65.63
2023-03-26T18:24:36.451Z,65.92
2023-03-26T18:27:07.298Z,66.30
2023-03-26T18:29:35.776Z,66.13
2023-03-26T18:32:03.800Z,66.30
2023-03-26T18:34:32.423Z,66.62
2023-03-26T18:37:11.219Z,67.58
2023-03-26T18:39:38.389Z,67.84
2023-03-26T18:42:06.569Z,68.28
2023-03-26T18:44:36.691Z,68.78
2023-03-26T18:47:08.772Z,69.51
2023-03-26T18:49:36.476Z,69.05
2023-03-26T18:52:03.291Z,69.93
2023-03-26T18:54:35.484Z,70.11
2023-03-26T18:57:15.341Z,70.14
2023-03-26T18:59:45.110Z,70.52
2023-03-26T19:02:14.514Z,70.91
2023-03-26T19:04:45.309Z,70.95
2023-03-26T19:07:16.314Z,71.99
2023-03-26T19:09:43.686Z,71.11
2023-03-26T19:12:20.841Z,71.78
2023-03-26T19:14:55.740Z,71.12
2023-03-26T19:17:26.441Z,71.59
2023-03-26T19:19:54.835Z,71.70
2023-03-26T19:22:25.172Z,71.75
2023-03-26T19:24:57.678Z,71.45
2023-03-26T19:27:24.489Z,71.28
2023-03-26T19:29:51.095Z,71.52
2023-03-26T19:32:28.586Z,71.21
2023-03-26T19:34:59.253Z,70.94
2023-03-26T19:37:30.673Z,71.17
2023-03-26T19:40:06.990Z,71.27
2023-03-26T19:42:44.086Z,70.21
2023-03-26T19:45:18.587Z,70.41
2023-03-26T19:47:50.189Z,70.35
2023-03-26T19:50:28.472Z,69.96
2023-03-26T19:53:17.907Z,69.46
2023-03-26T19:55:59.716Z,68.79
2023-03-26T19:58:27.071Z,68.61
2023-03-26T20:00:56.015Z,68.33
2023-03-26T20:03:38.001Z,67.21
2023-03-26T20:06:04.820Z,67.83
2023-03-26T20:08:31.516Z,67.66
2023-03-26T20:10:58.823Z,67.44
2023-03-26T20:13:25.730Z,68.12
2023-03-26T20:16:05.707Z,67.58
2023-03-26T20:18:34.513Z,67.08
2023-03-26T20:21:01.343Z,66.89
2023-03-26T20:23:28.767Z,66.87
2023-03-26T20:25:55.607Z,66.51
2023-03-26T20:28:22.317Z,66.50
2023-03-26T20:30:49.983Z,66.75
2023-03-26T20:33:26.590Z,67.38
2023-03-26T20:35:57.442Z,66.73
2023-03-26T20:38:38.695Z,67.01
2023-03-26T20:41:10.177Z,67.00
2023-03-26T20:43:37.329Z,67.38
2023-03-26T20:46:04.098Z,67.61
2023-03-26T20:48:31.501Z,67.48
2023-03-26T20:50:58.112Z,66.86
2023-03-26T20:53:24.868Z,67.40
2023-03-26T20:55:51.751Z,66.55
2023-03-26T20:58:31.552Z,66.93
2023-03-26T21:01:00.725Z,67.48
2023-03-26T21:03:27.407Z,67.21
2023-03-26T21:05:54.008Z,67.30
2023-03-26T21:08:21.724Z,67.45
2023-03-26T21:10:48.441Z,67.61
2023-03-26T21:13:33.108Z,67.84
2023-03-26T21:16:00.985Z,67.67
2023-03-26T21:18:28.750Z,67.99
2023-03-26T21:21:21.443Z,67.92
2023-03-26T21:23:59.228Z,67.58
2023-03-26T21:26:41.681Z,67.84
2023-03-26T21:29:08.710Z,67.72
2023-03-26T21:31:37.681Z,67.72
2023-03-26T21:34:05.481Z,67.71
2023-03-26T21:36:32.360Z,68.28
2023-03-26T21:38:59.526Z,68.30
2023-03-26T21:41:36.443Z,68.27
2023-03-26T21:44:03.594Z,68.38
2023-03-26T21:46:31.784Z,68.39
2023-03-26T21:48:58.519Z,68.65
2023-03-26T21:51:25.318Z,68.86
2023-03-26T21:53:52.181Z,68.84
2023-03-26T21:56:38.682Z,68.53
2023-03-26T21:59:24.186Z,68.71
2023-03-26T22:02:02.603Z,68.70
2023-03-26T22:04:44.993Z,69.29
2023-03-26T22:07:17.558Z,69.47
2023-03-26T22:09:44.988Z,69.26
2023-03-26T22:12:11.691Z,69.42
2023-03-26T22:14:38.675Z,69.33
2023-03-26T22:17:05.607Z,69.36
2023-03-26T22:19:32.171Z,69.28
2023-03-26T22:21:59.985Z,69.65
2023-03-26T22:24:27.057Z,69.58
2023-03-26T22:26:53.818Z,69.42
2023-03-26T22:29:20.720Z,69.38
2023-03-26T22:31:47.223Z,69.58
2023-03-26T22:34:13.881Z,69.41
2023-03-26T22:36:40.508Z,69.13
2023-03-26T22:39:07.207Z,69.63
2023-03-26T22:41:33.681Z,68.85
2023-03-26T22:44:09.259Z,69.21
2023-03-26T22:46:47.337Z,69.57
2023-03-26T22:49:13.836Z,69.24
2023-03-26T22:51:40.304Z,69.45
2023-03-26T22:54:07.611Z,69.42
2023-03-26T22:56:34.142Z,69.24
2023-03-26T22:59:00.616Z,69.53
2023-03-26T23:01:27.295Z,69.17
2023-03-26T23:03:54.866Z,69.70
2023-03-26T23:06:21.598Z,68.86
2023-03-26T23:08:48.219Z,69.34
2023-03-26T23:11:17.871Z,69.37
2023-03-26T23:13:45.254Z,70.22
2023-03-26T23:16:12.635Z,69.95
2023-03-26T23:18:39.505Z,69.93
2023-03-26T23:21:11.959Z,69.99
2023-03-26T23:23:39.541Z,70.09
2023-03-26T23:26:06.845Z,69.75
2023-03-26T23:28:34.697Z,70.17
2023-03-26T23:31:05.052Z,70.19
2023-03-26T23:33:35.175Z,70.78
2023-03-26T23:36:08.947Z,70.45
2023-03-26T23:38:44.126Z,70.35
2023-03-26T23:41:15.595Z,70.58
2023-03-26T23:43:53.545Z,70.57
2023-03-26T23:46:23.939Z,70.68
2023-03-26T23:48:51.152Z,70.83
2023-03-26T23:51:19.987Z,70.95
2023-03-26T23:53:47.339Z,71.00
2023-03-26T23:56:13.871Z,71.76
2023-03-26T23:58:40.556Z,71.32
